Time;durP1;ratioP1;P1;durP2;ratioP2;P2;SDS_P1;SDS_P2;PMS_P1;PMS_P2;Temp;Humidity;BMP_temperature;BMP_pressure;BME280_temperature;BME280_humidity;BME280_pressure;Samples;Min_cycle;Max_cycle;Signal;HPM_P1;HPM_P2
2023/05/11 00:00:15;;;;;;;7.22;4.80;;;;;;;;;;5069995;28;20040;-79
2023/05/11 00:02:41;;;;;;;10.20;4.75;;;;;;;;;;5051732;28;20115;-80
2023/05/11 00:05:06;;;;;;;5.90;4.35;;;;;;;;;;5069419;28;20025;-79
2023/05/11 00:07:32;;;;;;;6.50;3.80;;;;;;;;;;5070006;28;20383;-80
2023/05/11 00:09:57;;;;;;;7.57;4.03;;;;;;;;;;5051697;28;20077;-80
2023/05/11 00:12:23;;;;;;;4.57;3.47;;;;;;;;;;5070172;28;20428;-79
2023/05/11 00:14:48;;;;;;;6.43;3.60;;;;;;;;;;5051638;28;20074;-79
2023/05/11 00:17:14;;;;;;;8.63;4.07;;;;;;;;;;5069560;28;20057;-79
2023/05/11 00:19:39;;;;;;;5.03;3.40;;;;;;;;;;5069844;28;20359;-79
2023/05/11 00:22:05;;;;;;;4.22;3.83;;;;;;;;;;5085345;28;20024;-80
2023/05/11 00:24:30;;;;;;;5.55;2.65;;;;;;;;;;5072477;28;20029;-79
2023/05/11 00:26:56;;;;;;;3.80;2.78;;;;;;;;;;5073290;28;20028;-79
2023/05/11 00:29:21;;;;;;;5.40;3.22;;;;;;;;;;5074360;28;20025;-80
2023/05/11 00:31:47;;;;;;;10.68;2.92;;;;;;;;;;5073350;28;20036;-80
2023/05/11 00:34:14;;;;;;;5.75;3.22;;;;;;;;;;5055218;28;20399;-80
2023/05/11 00:36:41;;;;;;;9.40;3.40;;;;;;;;;;5072916;28;20463;-79
2023/05/11 00:39:07;;;;;;;4.35;2.92;;;;;;;;;;5073061;28;20182;-79
2023/05/11 00:41:33;;;;;;;3.05;2.42;;;;;;;;;;5054719;28;20037;-79
2023/05/11 00:43:58;;;;;;;4.05;3.55;;;;;;;;;;5054338;28;20024;-79
2023/05/11 00:46:24;;;;;;;6.57;3.40;;;;;;;;;;5054754;28;20031;-79
2023/05/11 00:48:49;;;;;;;7.53;3.90;;;;;;;;;;5072406;28;20343;-80
2023/05/11 00:51:15;;;;;;;4.35;3.38;;;;;;;;;;5072890;28;20035;-79
2023/05/11 00:53:41;;;;;;;3.13;2.88;;;;;;;;;;5054654;28;20515;-79
2023/05/11 00:56:07;;;;;;;4.45;3.20;;;;;;;;;;5072922;28;20105;-80
2023/05/11 00:58:34;;;;;;;3.90;3.30;;;;;;;;;;5054694;28;20028;-80
2023/05/11 01:01:00;;;;;;;4.75;3.22;;;;;;;;;;5073060;28;20453;-80
2023/05/11 01:03:25;;;;;;;3.15;2.83;;;;;;;;;;5072678;28;20101;-79
2023/05/11 01:06:05;;;;;;;3.50;2.83;;;;;;;;;;5072388;28;20029;-79
2023/05/11 01:08:45;;;;;;;3.30;2.90;;;;;;;;;;5073099;28;20467;-80
2023/05/11 01:11:41;;;;;;;7.53;3.15;;;;;;;;;;5073098;28;20355;-80
2023/05/11 01:14:14;;;;;;;3.92;3.20;;;;;;;;;;5054722;28;20350;-80
2023/05/11 01:16:45;;;;;;;3.80;3.13;;;;;;;;;;5073048;28;20020;-79
2023/05/11 01:19:42;;;;;;;3.58;3.03;;;;;;;;;;5072547;28;20029;-79
2023/05/11 01:22:49;;;;;;;3.67;3.13;;;;;;;;;;5054067;28;20040;-79
2023/05/11 01:25:33;;;;;;;3.20;2.42;;;;;;;;;;5046507;28;20502;-79
2023/05/11 01:28:22;;;;;;;4.82;2.80;;;;;;;;;;5087303;28;20032;-78
2023/05/11 01:30:53;;;;;;;4.97;2.65;;;;;;;;;;5087770;28;20020;-79
2023/05/11 01:33:26;;;;;;;2.97;2.70;;;;;;;;;;5072101;28;20383;-78
2023/05/11 01:35:55;;;;;;;5.30;3.00;;;;;;;;;;5070771;28;20064;-79
2023/05/11 01:38:23;;;;;;;6.53;3.00;;;;;;;;;;5072138;28;20029;-80
2023/05/11 01:40:54;;;;;;;4.15;2.63;;;;;;;;;;5072922;28;20036;-79
2023/05/11 01:43:22;;;;;;;7.32;4.60;;;;;;;;;;5054011;28;20024;-79
2023/05/11 01:45:50;;;;;;;4.10;3.22;;;;;;;;;;5053686;28;20032;-79
2023/05/11 01:48:20;;;;;;;2.42;2.22;;;;;;;;;;5071623;28;20028;-79
2023/05/11 01:50:47;;;;;;;2.70;2.42;;;;;;;;;;5053540;28;20028;-79
2023/05/11 01:53:14;;;;;;;4.28;2.70;;;;;;;;;;5052847;28;20028;-78
2023/05/11 01:55:41;;;;;;;3.72;2.92;;;;;;;;;;5071418;28;20056;-79
2023/05/11 01:58:09;;;;;;;3.70;2.40;;;;;;;;;;5053386;28;20029;-79
2023/05/11 02:00:38;;;;;;;2.88;2.47;;;;;;;;;;5072088;28;20067;-79
2023/05/11 02:03:07;;;;;;;3.33;2.50;;;;;;;;;;5071554;28;20502;-79
2023/05/11 02:05:33;;;;;;;4.05;2.67;;;;;;;;;;5071241;28;20041;-79
2023/05/11 02:08:01;;;;;;;5.32;2.90;;;;;;;;;;5053288;28;20021;-79
2023/05/11 02:10:27;;;;;;;4.78;2.65;;;;;;;;;;5054116;28;20123;-80
2023/05/11 02:12:54;;;;;;;10.55;2.78;;;;;;;;;;5053598;28;20031;-79
2023/05/11 02:15:24;;;;;;;4.25;2.67;;;;;;;;;;5071578;28;20040;-79
2023/05/11 02:17:52;;;;;;;5.18;2.67;;;;;;;;;;5086741;28;20031;-79
2023/05/11 02:20:19;;;;;;;3.65;2.38;;;;;;;;;;5053065;28;20024;-80
2023/05/11 02:22:46;;;;;;;2.90;2.53;;;;;;;;;;5053051;28;20074;-79
2023/05/11 02:25:14;;;;;;;2.97;2.67;;;;;;;;;;5070822;28;20028;-79
2023/05/11 02:27:39;;;;;;;4.47;2.90;;;;;;;;;;5052684;28;20448;-79
2023/05/11 02:30:07;;;;;;;5.13;2.97;;;;;;;;;;5070644;28;20108;-79
2023/05/11 02:32:37;;;;;;;2.80;2.55;;;;;;;;;;5086571;28;20039;-79
2023/05/11 02:35:11;;;;;;;6.35;2.67;;;;;;;;;;5053123;28;20040;-79
2023/05/11 02:37:45;;;;;;;3.42;2.80;;;;;;;;;;5053000;28;20555;-79
2023/05/11 02:40:27;;;;;;;6.55;2.78;;;;;;;;;;5070768;28;20336;-79
2023/05/11 02:42:57;;;;;;;4.28;2.97;;;;;;;;;;5070815;28;20029;-80
2023/05/11 02:45:24;;;;;;;3.72;2.75;;;;;;;;;;5070759;28;20035;-80
2023/05/11 02:47:55;;;;;;;5.00;2.85;;;;;;;;;;5070752;28;20021;-79
2023/05/11 02:50:23;;;;;;;3.55;2.75;;;;;;;;;;5052760;28;20104;-79
2023/05/11 02:52:52;;;;;;;3.63;2.72;;;;;;;;;;5070612;28;20027;-79
2023/05/11 02:55:21;;;;;;;4.68;3.13;;;;;;;;;;5070146;28;20033;-78
2023/05/11 02:57:47;;;;;;;5.88;2.95;;;;;;;;;;5085842;28;20036;-79
2023/05/11 03:00:13;;;;;;;3.65;3.17;;;;;;;;;;5052062;28;20028;-79
2023/05/11 03:02:38;;;;;;;5.95;2.85;;;;;;;;;;5070293;28;20099;-78
2023/05/11 03:05:04;;;;;;;4.85;2.85;;;;;;;;;;5051929;28;20020;-78
2023/05/11 03:07:32;;;;;;;8.18;3.03;;;;;;;;;;5069728;28;20513;-79
2023/05/11 03:09:57;;;;;;;3.58;2.90;;;;;;;;;;5070371;28;20028;-79
2023/05/11 03:12:23;;;;;;;5.15;2.63;;;;;;;;;;5070848;28;20077;-81
2023/05/11 03:14:50;;;;;;;6.45;3.08;;;;;;;;;;5052266;28;20043;-78
2023/05/11 03:17:18;;;;;;;8.13;3.08;;;;;;;;;;5069736;28;20382;-79
2023/05/11 03:19:44;;;;;;;4.20;3.17;;;;;;;;;;5069956;28;20055;-79
2023/05/11 03:22:10;;;;;;;3.90;3.13;;;;;;;;;;5069869;28;20056;-79
2023/05/11 03:24:38;;;;;;;3.97;2.80;;;;;;;;;;5085489;28;20032;-78
2023/05/11 03:27:06;;;;;;;4.38;2.80;;;;;;;;;;5070166;28;20025;-79
2023/05/11 03:29:33;;;;;;;4.93;2.58;;;;;;;;;;5052833;28;20024;-79
2023/05/11 03:31:59;;;;;;;4.07;3.25;;;;;;;;;;5051723;28;20070;-79
2023/05/11 03:34:24;;;;;;;3.72;2.97;;;;;;;;;;5051792;28;20020;-78
2023/05/11 03:36:51;;;;;;;7.22;3.20;;;;;;;;;;5051784;28;20376;-79
2023/05/11 03:39:19;;;;;;;4.18;3.10;;;;;;;;;;5070030;28;20116;-74
2023/05/11 03:41:49;;;;;;;6.28;3.10;;;;;;;;;;5069889;28;20032;-79
2023/05/11 03:44:18;;;;;;;4.35;3.10;;;;;;;;;;5051763;28;20032;-78
2023/05/11 03:46:45;;;;;;;5.43;2.70;;;;;;;;;;5069980;28;20028;-78
2023/05/11 03:49:11;;;;;;;5.32;2.97;;;;;;;;;;5069797;28;20021;-79
2023/05/11 03:51:37;;;;;;;5.40;3.50;;;;;;;;;;5070033;28;20039;-80
2023/05/11 03:54:02;;;;;;;5.38;3.38;;;;;;;;;;5051568;28;20111;-80
2023/05/11 03:56:28;;;;;;;3.40;2.92;;;;;;;;;;5051584;28;20059;-79
2023/05/11 03:58:54;;;;;;;3.80;2.78;;;;;;;;;;5071803;28;20069;-79
2023/05/11 04:01:21;;;;;;;4.95;3.33;;;;;;;;;;5073227;28;20036;-79
2023/05/11 04:03:51;;;;;;;6.80;3.40;;;;;;;;;;5055534;28;20060;-79
2023/05/11 04:06:18;;;;;;;16.42;4.88;;;;;;;;;;5073440;28;20086;-80
2023/05/11 04:08:43;;;;;;;3.80;2.83;;;;;;;;;;5055431;28;20046;-78
2023/05/11 04:11:09;;;;;;;4.22;3.05;;;;;;;;;;5055276;28;20243;-79
2023/05/11 04:13:35;;;;;;;5.75;2.90;;;;;;;;;;5055693;28;20410;-79
2023/05/11 04:16:00;;;;;;;11.57;3.55;;;;;;;;;;5073645;28;20375;-79
2023/05/11 04:18:26;;;;;;;5.82;3.35;;;;;;;;;;5055336;28;20554;-79
2023/05/11 04:20:51;;;;;;;8.48;3.70;;;;;;;;;;5073218;28;20024;-79
2023/05/11 04:23:17;;;;;;;5.68;3.22;;;;;;;;;;5088695;28;20363;-79
2023/05/11 04:25:42;;;;;;;6.47;3.05;;;;;;;;;;5073067;28;20056;-79
2023/05/11 04:28:08;;;;;;;7.03;2.75;;;;;;;;;;5073315;28;20020;-80
2023/05/11 04:30:33;;;;;;;5.03;3.67;;;;;;;;;;5055048;28;20052;-80
2023/05/11 04:32:59;;;;;;;13.75;3.95;;;;;;;;;;5071636;28;20115;-79
2023/05/11 04:35:24;;;;;;;5.05;3.85;;;;;;;;;;5073005;28;20020;-79
2023/05/11 04:37:50;;;;;;;5.10;3.08;;;;;;;;;;5075520;28;20310;-79
2023/05/11 04:40:16;;;;;;;4.97;2.88;;;;;;;;;;5073151;28;20027;-79
2023/05/11 04:42:41;;;;;;;7.50;2.88;;;;;;;;;;5055686;28;20025;-80
2023/05/11 04:45:07;;;;;;;4.10;2.88;;;;;;;;;;5073384;28;20496;-80
2023/05/11 04:47:32;;;;;;;3.40;2.92;;;;;;;;;;5072855;28;20032;-79
2023/05/11 04:49:58;;;;;;;8.32;4.38;;;;;;;;;;5054550;28;20380;-80
2023/05/11 04:52:23;;;;;;;6.10;3.72;;;;;;;;;;5055078;28;20074;-79
2023/05/11 04:54:49;;;;;;;5.85;3.50;;;;;;;;;;5073069;28;20028;-79
2023/05/11 04:57:14;;;;;;;4.93;3.30;;;;;;;;;;5053983;28;20044;-79
2023/05/11 04:59:40;;;;;;;7.28;3.35;;;;;;;;;;5072106;28;20024;-79
2023/05/11 05:02:05;;;;;;;6.20;2.72;;;;;;;;;;5072388;28;20021;-78
2023/05/11 05:04:31;;;;;;;5.03;3.58;;;;;;;;;;5054742;28;20082;-79
2023/05/11 05:06:57;;;;;;;4.95;2.95;;;;;;;;;;5072447;28;20047;-80
2023/05/11 05:09:22;;;;;;;4.45;2.80;;;;;;;;;;5053871;28;20364;-79
2023/05/11 05:11:48;;;;;;;5.10;3.35;;;;;;;;;;5072605;28;20025;-79
2023/05/11 05:14:13;;;;;;;7.47;3.58;;;;;;;;;;5071761;28;20024;-79
2023/05/11 05:16:39;;;;;;;6.85;3.45;;;;;;;;;;5053849;28;20020;-80
2023/05/11 05:19:04;;;;;;;5.90;3.58;;;;;;;;;;5071895;28;20021;-79
2023/05/11 05:21:31;;;;;;;6.38;3.10;;;;;;;;;;5053922;28;20417;-79
2023/05/11 05:23:56;;;;;;;4.38;3.03;;;;;;;;;;5067410;28;20028;-80
2023/05/11 05:26:22;;;;;;;4.75;2.60;;;;;;;;;;5053372;28;20439;-81
2023/05/11 05:28:48;;;;;;;4.05;3.15;;;;;;;;;;5075556;28;20050;-80
2023/05/11 05:31:13;;;;;;;9.88;3.50;;;;;;;;;;5071426;28;20028;-78
2023/05/11 05:33:39;;;;;;;8.52;3.30;;;;;;;;;;5071559;28;20039;-81
2023/05/11 05:36:04;;;;;;;9.02;6.03;;;;;;;;;;5071340;28;20073;-81
2023/05/11 05:38:30;;;;;;;4.22;3.15;;;;;;;;;;5055437;28;20597;-82
2023/05/11 05:40:55;;;;;;;8.77;3.30;;;;;;;;;;5073272;28;20392;-81
2023/05/11 05:43:22;;;;;;;6.55;3.08;;;;;;;;;;5071985;28;20078;-80
2023/05/11 05:45:48;;;;;;;7.93;3.33;;;;;;;;;;5072165;28;20064;-78
2023/05/11 05:48:13;;;;;;;5.10;3.30;;;;;;;;;;5043265;28;20492;-81
2023/05/11 05:50:39;;;;;;;5.95;3.25;;;;;;;;;;5045625;28;20618;-79
2023/05/11 05:53:04;;;;;;;7.07;4.10;;;;;;;;;;5068585;28;20028;-81
2023/05/11 05:55:30;;;;;;;5.65;2.90;;;;;;;;;;5071274;28;20142;-80
2023/05/11 05:57:58;;;;;;;6.35;2.85;;;;;;;;;;5070153;28;20032;-81
2023/05/11 06:00:23;;;;;;;10.73;3.65;;;;;;;;;;5053182;28;20017;-79
2023/05/11 06:02:50;;;;;;;11.40;4.75;;;;;;;;;;5051676;28;20109;-82
2023/05/11 06:05:15;;;;;;;5.82;3.55;;;;;;;;;;5047930;28;20392;-80
2023/05/11 06:07:41;;;;;;;6.40;3.20;;;;;;;;;;5051237;28;20032;-80
2023/05/11 06:10:06;;;;;;;12.02;3.60;;;;;;;;;;5070043;28;20108;-81
2023/05/11 06:12:32;;;;;;;5.32;2.58;;;;;;;;;;5069163;28;20024;-81
2023/05/11 06:14:57;;;;;;;8.60;3.35;;;;;;;;;;5048822;28;20033;-80
2023/05/11 06:17:23;;;;;;;7.85;3.08;;;;;;;;;;5051665;28;20024;-80
2023/05/11 06:19:49;;;;;;;4.90;3.45;;;;;;;;;;5064731;28;20021;-81
2023/05/11 06:22:14;;;;;;;5.13;2.83;;;;;;;;;;5061505;28;20460;-83
2023/05/11 06:24:40;;;;;;;7.22;2.80;;;;;;;;;;5071769;28;20031;-81
2023/05/11 06:27:06;;;;;;;7.93;3.67;;;;;;;;;;5072982;28;20948;-80
2023/05/11 06:29:33;;;;;;;9.27;3.30;;;;;;;;;;5032717;28;20033;-76
2023/05/11 06:31:59;;;;;;;3.88;2.95;;;;;;;;;;5065808;28;20046;-79
2023/05/11 06:34:24;;;;;;;3.50;2.60;;;;;;;;;;5065903;28;20028;-79
2023/05/11 06:36:50;;;;;;;8.32;3.30;;;;;;;;;;5069428;28;20020;-79
2023/05/11 06:39:16;;;;;;;5.07;3.10;;;;;;;;;;5062342;28;20043;-78
2023/05/11 06:41:41;;;;;;;7.75;3.88;;;;;;;;;;5052774;28;20149;-81
2023/05/11 06:44:07;;;;;;;6.70;3.45;;;;;;;;;;5052950;28;20488;-81
2023/05/11 06:46:32;;;;;;;10.07;3.40;;;;;;;;;;5043178;28;20171;-82
2023/05/11 06:49:01;;;;;;;4.38;2.75;;;;;;;;;;5068326;28;20046;-84
2023/05/11 06:51:27;;;;;;;6.00;3.40;;;;;;;;;;5037452;28;20435;-82
2023/05/11 06:53:52;;;;;;;6.10;3.50;;;;;;;;;;5070106;28;20098;-79
2023/05/11 06:56:18;;;;;;;6.45;3.63;;;;;;;;;;5046133;28;20041;-82
2023/05/11 06:58:43;;;;;;;7.07;3.25;;;;;;;;;;5048724;28;20030;-82
2023/05/11 07:01:10;;;;;;;8.32;3.17;;;;;;;;;;5046942;28;20052;-81
2023/05/11 07:03:36;;;;;;;8.30;3.22;;;;;;;;;;5051474;28;20032;-83
2023/05/11 07:06:02;;;;;;;6.35;3.42;;;;;;;;;;5046942;28;20028;-81
2023/05/11 07:08:28;;;;;;;12.52;3.63;;;;;;;;;;5048287;28;20104;-82
2023/05/11 07:10:53;;;;;;;9.10;3.15;;;;;;;;;;5060286;28;20131;-80
2023/05/11 07:13:19;;;;;;;3.35;3.03;;;;;;;;;;5052354;28;20024;-81
2023/05/11 07:15:44;;;;;;;7.63;2.88;;;;;;;;;;5038000;28;20503;-80
2023/05/11 07:18:10;;;;;;;6.85;2.78;;;;;;;;;;5039341;28;20086;-79
2023/05/11 07:20:36;;;;;;;6.55;2.83;;;;;;;;;;5044510;28;20032;-79
2023/05/11 07:23:02;;;;;;;6.95;2.75;;;;;;;;;;5043643;28;20067;-78
2023/05/11 07:25:28;;;;;;;4.45;2.55;;;;;;;;;;5042162;28;20028;-78
2023/05/11 07:27:54;;;;;;;4.88;2.70;;;;;;;;;;5038527;28;20041;-80
2023/05/11 07:30:20;;;;;;;8.82;2.88;;;;;;;;;;5046932;28;20532;-80
2023/05/11 07:32:48;;;;;;;5.03;2.83;;;;;;;;;;5044163;28;20120;-79
2023/05/11 07:35:14;;;;;;;4.55;3.05;;;;;;;;;;5040237;28;20561;-78
2023/05/11 07:37:40;;;;;;;3.35;2.60;;;;;;;;;;5043117;28;20148;-78
2023/05/11 07:40:07;;;;;;;5.13;2.83;;;;;;;;;;5043755;28;20033;-79
2023/05/11 07:42:32;;;;;;;10.40;3.72;;;;;;;;;;5045337;28;20021;-79
2023/05/11 07:44:58;;;;;;;3.75;2.47;;;;;;;;;;5043438;28;20029;-80
2023/05/11 07:47:24;;;;;;;4.95;2.58;;;;;;;;;;5040204;28;20024;-81
2023/05/11 07:49:49;;;;;;;8.85;2.88;;;;;;;;;;5037169;28;20029;-81
2023/05/11 07:52:15;;;;;;;7.28;3.05;;;;;;;;;;5045092;28;20021;-83
2023/05/11 07:54:41;;;;;;;8.15;2.97;;;;;;;;;;5048821;28;20548;-82
2023/05/11 07:57:07;;;;;;;6.75;3.75;;;;;;;;;;5044142;28;20101;-83
2023/05/11 07:59:32;;;;;;;5.65;2.60;;;;;;;;;;5042472;28;20022;-81
2023/05/11 08:01:58;;;;;;;7.18;2.92;;;;;;;;;;5043365;28;20036;-83
2023/05/11 08:04:26;;;;;;;9.35;2.90;;;;;;;;;;5067495;28;20084;-83
2023/05/11 08:06:52;;;;;;;6.13;3.22;;;;;;;;;;5048078;28;20025;-80
2023/05/11 08:09:18;;;;;;;5.18;2.65;;;;;;;;;;5036419;28;20395;-81
2023/05/11 08:11:44;;;;;;;7.85;5.25;;;;;;;;;;5035252;28;20031;-82
2023/05/11 08:14:09;;;;;;;3.28;2.60;;;;;;;;;;5046081;28;20111;-80
2023/05/11 08:16:36;;;;;;;4.85;3.05;;;;;;;;;;5043003;28;20673;-81
2023/05/11 08:19:05;;;;;;;7.72;3.17;;;;;;;;;;5048520;28;20040;-83
2023/05/11 08:21:32;;;;;;;7.55;3.75;;;;;;;;;;5047130;28;20028;-84
2023/05/11 08:23:58;;;;;;;4.88;3.00;;;;;;;;;;5044466;28;20029;-81
2023/05/11 08:26:24;;;;;;;8.13;2.75;;;;;;;;;;5044925;28;20439;-83
2023/05/11 08:28:58;;;;;;;4.93;2.35;;;;;;;;;;5044003;28;20032;-83
2023/05/11 08:31:23;;;;;;;7.35;2.72;;;;;;;;;;5045090;28;20032;-82
2023/05/11 08:33:49;;;;;;;3.70;2.55;;;;;;;;;;5050393;28;20068;-84
2023/05/11 08:36:15;;;;;;;3.92;2.40;;;;;;;;;;5047242;28;20029;-85
2023/05/11 08:38:40;;;;;;;3.47;2.50;;;;;;;;;;5041850;28;20171;-82
2023/05/11 08:41:06;;;;;;;6.57;3.85;;;;;;;;;;5045033;28;20107;-82
2023/05/11 08:43:34;;;;;;;5.40;2.95;;;;;;;;;;5036434;28;20017;-80
2023/05/11 08:46:03;;;;;;;3.20;2.40;;;;;;;;;;5046518;28;20032;-81
2023/05/11 08:48:29;;;;;;;4.43;2.90;;;;;;;;;;5023150;28;20124;-84
2023/05/11 08:50:59;;;;;;;4.72;2.60;;;;;;;;;;5044862;28;20021;-84
2023/05/11 08:53:24;;;;;;;3.03;2.22;;;;;;;;;;5044193;28;20401;-84
2023/05/11 08:55:50;;;;;;;7.18;2.88;;;;;;;;;;5048946;28;20140;-83
2023/05/11 08:58:21;;;;;;;13.68;2.90;;;;;;;;;;5051202;28;20028;-84
2023/05/11 09:00:50;;;;;;;6.15;2.30;;;;;;;;;;5049785;28;20036;-84
2023/05/11 09:03:18;;;;;;;11.38;3.47;;;;;;;;;;5050532;28;20029;-84
2023/05/11 09:05:48;;;;;;;8.88;2.40;;;;;;;;;;5048734;28;20523;-83
2023/05/11 09:08:16;;;;;;;3.95;1.80;;;;;;;;;;5050907;28;20051;-83
2023/05/11 09:10:43;;;;;;;3.95;1.92;;;;;;;;;;5049776;28;20385;-84
2023/05/11 09:13:08;;;;;;;5.60;2.30;;;;;;;;;;5044041;28;20037;-80
2023/05/11 09:15:34;;;;;;;3.95;2.58;;;;;;;;;;5044257;28;20021;-80
2023/05/11 09:18:01;;;;;;;9.05;2.13;;;;;;;;;;5042939;28;20369;-80
2023/05/11 09:20:29;;;;;;;4.25;1.55;;;;;;;;;;5041701;28;20544;-83
2023/05/11 09:22:55;;;;;;;8.13;2.15;;;;;;;;;;5048857;28;20052;-81
2023/05/11 09:25:23;;;;;;;2.45;1.70;;;;;;;;;;5048880;28;20040;-82
2023/05/11 09:27:48;;;;;;;3.38;2.13;;;;;;;;;;5046263;28;20049;-81
2023/05/11 09:30:21;;;;;;;3.65;1.70;;;;;;;;;;5048751;28;20084;-83
2023/05/11 09:32:55;;;;;;;2.20;1.70;;;;;;;;;;5048493;28;20032;-84
2023/05/11 09:35:28;;;;;;;2.20;1.90;;;;;;;;;;5045889;28;20021;-83
2023/05/11 09:38:07;;;;;;;5.13;1.80;;;;;;;;;;5048531;28;20025;-85
2023/05/11 09:40:38;;;;;;;3.78;1.92;;;;;;;;;;5052092;28;20115;-82
2023/05/11 09:43:22;;;;;;;;;;;;;;;;;;5046663;28;20025;-82
2023/05/11 09:45:50;;;;;;;3.10;1.60;;;;;;;;;;5065546;28;19968;-83
2023/05/11 09:48:15;;;;;;;5.22;2.03;;;;;;;;;;5030059;28;20037;-83
2023/05/11 09:50:42;;;;;;;3.17;1.70;;;;;;;;;;5042536;28;20055;-81
2023/05/11 09:53:07;;;;;;;3.33;1.75;;;;;;;;;;5063387;28;20035;-81
2023/05/11 09:55:33;;;;;;;6.45;1.73;;;;;;;;;;5043228;28;21169;-81
2023/05/11 09:57:59;;;;;;;4.53;1.90;;;;;;;;;;5045538;28;20468;-82
2023/05/11 10:00:25;;;;;;;2.20;2.00;;;;;;;;;;5048681;28;20039;-82
2023/05/11 10:03:05;;;;;;;4.13;2.08;;;;;;;;;;5043220;28;20025;-80
2023/05/11 10:05:32;;;;;;;4.43;2.03;;;;;;;;;;5062017;28;20567;-83
2023/05/11 10:08:04;;;;;;;2.97;1.80;;;;;;;;;;5047687;28;20029;-78
2023/05/11 10:10:32;;;;;;;3.20;1.73;;;;;;;;;;5046866;28;20025;-82
2023/05/11 10:12:59;;;;;;;3.78;1.52;;;;;;;;;;5045248;28;20025;-81
2023/05/11 10:15:31;;;;;;;3.28;1.38;;;;;;;;;;5045144;28;20032;-82
2023/05/11 10:17:59;;;;;;;2.20;1.73;;;;;;;;;;5045491;28;20405;-83
2023/05/11 10:20:25;;;;;;;4.28;2.13;;;;;;;;;;5035935;28;20477;-81
2023/05/11 10:22:55;;;;;;;2.28;1.70;;;;;;;;;;5040339;28;20023;-83
2023/05/11 10:25:21;;;;;;;3.92;1.83;;;;;;;;;;5046586;28;20079;-83
2023/05/11 10:27:47;;;;;;;7.70;2.22;;;;;;;;;;5050639;28;20154;-83
2023/05/11 10:30:14;;;;;;;4.53;2.13;;;;;;;;;;5049272;28;20036;-78
2023/05/11 10:32:42;;;;;;;2.60;1.88;;;;;;;;;;5048749;28;20043;-83
2023/05/11 10:35:11;;;;;;;2.25;1.70;;;;;;;;;;5053524;28;20064;-86
2023/05/11 10:37:41;;;;;;;3.65;1.83;;;;;;;;;;5050966;28;20151;-82
2023/05/11 10:40:08;;;;;;;3.17;1.60;;;;;;;;;;5048665;28;20035;-83
2023/05/11 10:43:08;;;;;;;3.20;2.17;;;;;;;;;;5049592;28;20035;-84
2023/05/11 10:45:57;;;;;;;1.75;1.60;;;;;;;;;;5050496;28;20608;-83
2023/05/11 10:48:49;;;;;;;4.93;1.75;;;;;;;;;;5044080;28;21444;-85
2023/05/11 10:51:49;;;;;;;2.97;1.90;;;;;;;;;;5048490;28;20082;-83
2023/05/11 10:54:49;;;;;;;5.53;1.65;;;;;;;;;;5050947;28;20040;-79
2023/05/11 10:58:06;;;;;;;6.15;2.20;;;;;;;;;;5010149;28;20049;-81
2023/05/11 11:00:42;;;;;;;3.50;1.55;;;;;;;;;;4960661;28;20436;-79
2023/05/11 11:03:12;;;;;;;6.60;2.05;;;;;;;;;;5032481;28;20492;-82
2023/05/11 11:05:39;;;;;;;5.05;1.80;;;;;;;;;;5042024;28;20380;-81
2023/05/11 11:08:07;;;;;;;9.15;2.05;;;;;;;;;;5043564;28;20040;-82
2023/05/11 11:10:49;;;;;;;6.43;1.77;;;;;;;;;;5045647;28;20040;-84
2023/05/11 11:13:16;;;;;;;3.42;1.90;;;;;;;;;;5036694;28;20108;-82
2023/05/11 11:15:57;;;;;;;6.07;1.95;;;;;;;;;;5027728;28;20032;-80
2023/05/11 11:18:23;;;;;;;;;;;;;;;;;;5048151;28;20024;-83
2023/05/11 11:20:51;;;;;;;3.58;1.63;;;;;;;;;;5049949;28;20055;-83
2023/05/11 11:23:38;;;;;;;7.53;2.15;;;;;;;;;;5049344;28;20100;-84
2023/05/11 11:26:07;;;;;;;2.92;1.67;;;;;;;;;;5041618;28;20156;-85
2023/05/11 11:28:59;;;;;;;4.53;1.75;;;;;;;;;;5031678;28;20029;-82
2023/05/11 11:31:26;;;;;;;3.10;1.42;;;;;;;;;;5044811;28;20029;-82
2023/05/11 11:33:59;;;;;;;6.88;2.00;;;;;;;;;;5049874;28;20393;-85
2023/05/11 11:37:00;;;;;;;4.65;1.65;;;;;;;;;;5052466;28;20044;-82
2023/05/11 11:39:41;;;;;;;6.57;2.60;;;;;;;;;;5042915;28;20033;-77
2023/05/11 11:42:18;;;;;;;4.07;1.70;;;;;;;;;;5046352;28;20041;-78
2023/05/11 11:44:44;;;;;;;4.03;1.63;;;;;;;;;;5044331;28;20094;-82
2023/05/11 11:47:21;;;;;;;4.80;1.80;;;;;;;;;;5041238;28;20033;-82
2023/05/11 11:49:53;;;;;;;15.82;2.38;;;;;;;;;;5035934;28;20057;-85
2023/05/11 11:52:27;;;;;;;1.50;1.40;;;;;;;;;;5044573;28;20029;-85
2023/05/11 11:54:55;;;;;;;7.03;2.78;;;;;;;;;;5045519;28;20036;-83
2023/05/11 11:57:36;;;;;;;3.05;1.85;;;;;;;;;;5048377;28;20060;-84
2023/05/11 12:00:09;;;;;;;4.80;1.90;;;;;;;;;;5044853;28;20413;-85
2023/05/11 12:02:40;;;;;;;141.95;17.73;;;;;;;;;;5043501;28;20047;-82
2023/05/11 12:05:23;;;;;;;4.72;2.10;;;;;;;;;;5040552;28;20039;-84
2023/05/11 12:07:51;;;;;;;4.35;1.95;;;;;;;;;;5048858;28;20033;-84
2023/05/11 12:10:23;;;;;;;7.22;2.10;;;;;;;;;;5042358;28;20037;-83
2023/05/11 12:12:53;;;;;;;3.75;2.05;;;;;;;;;;5040590;28;20037;-86
2023/05/11 12:15:27;;;;;;;4.05;2.08;;;;;;;;;;5043173;28;20045;-84
2023/05/11 12:17:53;;;;;;;3.95;1.65;;;;;;;;;;5044181;28;20041;-83
2023/05/11 12:20:19;;;;;;;2.22;1.50;;;;;;;;;;5045166;28;20034;-83
2023/05/11 12:22:47;;;;;;;4.93;1.90;;;;;;;;;;5048422;28;20025;-80
2023/05/11 12:25:16;;;;;;;6.35;1.80;;;;;;;;;;5045487;28;21776;-81
2023/05/11 12:28:01;;;;;;;2.55;1.65;;;;;;;;;;5049348;28;20037;-83
2023/05/11 12:30:32;;;;;;;6.00;2.03;;;;;;;;;;5049387;28;20507;-83
2023/05/11 12:32:58;;;;;;;9.45;2.95;;;;;;;;;;5050918;28;20570;-80
2023/05/11 12:35:34;;;;;;;2.33;1.50;;;;;;;;;;5050019;28;20029;-82
2023/05/11 12:38:02;;;;;;;7.03;1.70;;;;;;;;;;5039447;28;20365;-79
2023/05/11 12:40:29;;;;;;;2.38;1.50;;;;;;;;;;5052551;28;20032;-84
2023/05/11 12:42:57;;;;;;;1.40;1.30;;;;;;;;;;5047201;28;20121;-83
2023/05/11 12:45:25;;;;;;;2.97;1.80;;;;;;;;;;5048619;28;20021;-82
2023/05/11 12:47:53;;;;;;;13.40;2.00;;;;;;;;;;5045300;28;20025;-82
2023/05/11 12:50:20;;;;;;;4.95;1.65;;;;;;;;;;5043796;28;20048;-81
2023/05/11 12:52:47;;;;;;;3.47;1.77;;;;;;;;;;5046839;28;20028;-80
2023/05/11 12:55:13;;;;;;;1.92;1.45;;;;;;;;;;5042251;28;20035;-82
2023/05/11 12:57:39;;;;;;;6.43;1.92;;;;;;;;;;5052798;28;20380;-81
2023/05/11 13:00:14;;;;;;;7.15;1.90;;;;;;;;;;5051102;28;20063;-84
2023/05/11 13:02:52;;;;;;;8.15;1.90;;;;;;;;;;5050312;28;20024;-85
2023/05/11 13:05:24;;;;;;;3.10;1.73;;;;;;;;;;5055471;28;20040;-84
2023/05/11 13:08:02;;;;;;;3.35;1.70;;;;;;;;;;5051287;28;20108;-84
2023/05/11 13:10:28;;;;;;;4.40;2.22;;;;;;;;;;5072357;28;20036;-84
2023/05/11 13:12:55;;;;;;;4.22;1.95;;;;;;;;;;5055503;28;20092;-87
2023/05/11 13:15:22;;;;;;;8.43;3.00;;;;;;;;;;5054463;28;20020;-83
2023/05/11 13:17:55;;;;;;;9.80;2.20;;;;;;;;;;5051172;28;20039;-85
2023/05/11 13:20:26;;;;;;;6.70;2.08;;;;;;;;;;5058520;28;20033;-84
2023/05/11 13:23:13;;;;;;;9.68;2.40;;;;;;;;;;5055675;28;20021;-85
2023/05/11 13:25:46;;;;;;;5.75;1.83;;;;;;;;;;5066689;28;20039;-86
2023/05/11 13:28:18;;;;;;;11.35;2.15;;;;;;;;;;5070590;28;20035;-84
2023/05/11 13:30:43;;;;;;;;;;;;;;;;;;5074282;28;20472;-84
2023/05/11 13:33:09;;;;;;;2.40;1.63;;;;;;;;;;5073519;28;19916;-86
2023/05/11 13:35:42;;;;;;;3.28;1.88;;;;;;;;;;5056000;28;20025;-85
2023/05/11 13:38:09;;;;;;;2.75;1.60;;;;;;;;;;5071059;28;20036;-80
2023/05/11 13:40:36;;;;;;;5.97;2.00;;;;;;;;;;5054284;28;20097;-83
2023/05/11 13:43:02;;;;;;;3.75;1.60;;;;;;;;;;5069566;28;20039;-83
2023/05/11 13:45:28;;;;;;;3.58;1.70;;;;;;;;;;5050037;28;20040;-83
2023/05/11 13:47:55;;;;;;;5.20;2.17;;;;;;;;;;5068495;28;20036;-81
2023/05/11 13:50:25;;;;;;;2.95;1.70;;;;;;;;;;5056114;28;20032;-85
2023/05/11 13:52:51;;;;;;;6.28;2.30;;;;;;;;;;5051161;28;20086;-81
2023/05/11 13:55:17;;;;;;;1.58;1.48;;;;;;;;;;5050699;28;20044;-81
2023/05/11 13:57:43;;;;;;;3.00;1.80;;;;;;;;;;5045921;28;20059;-81
2023/05/11 14:00:12;;;;;;;5.45;2.10;;;;;;;;;;5045096;28;20040;-79
2023/05/11 14:02:38;;;;;;;5.13;2.30;;;;;;;;;;5049697;28;20035;-82
2023/05/11 14:05:03;;;;;;;6.35;2.22;;;;;;;;;;5056242;28;20020;-83
2023/05/11 14:07:29;;;;;;;4.22;2.00;;;;;;;;;;5071136;28;20040;-83
2023/05/11 14:09:59;;;;;;;3.67;2.60;;;;;;;;;;5073856;28;20081;-83
2023/05/11 14:12:25;;;;;;;3.33;2.15;;;;;;;;;;5070129;28;20028;-83
2023/05/11 14:14:50;;;;;;;5.53;2.20;;;;;;;;;;5067696;28;20027;-83
2023/05/11 14:17:16;;;;;;;3.08;1.88;;;;;;;;;;5049792;28;20032;-83
2023/05/11 14:19:41;;;;;;;7.72;2.58;;;;;;;;;;5070637;28;20059;-82
2023/05/11 14:22:06;;;;;;;6.03;2.10;;;;;;;;;;5044704;28;20029;-81
2023/05/11 14:24:32;;;;;;;6.15;2.10;;;;;;;;;;5053798;28;20470;-81
2023/05/11 14:26:58;;;;;;;8.43;2.72;;;;;;;;;;5069786;28;20041;-82
2023/05/11 14:29:24;;;;;;;6.25;2.50;;;;;;;;;;5068109;28;20040;-84
2023/05/11 14:31:50;;;;;;;3.10;2.17;;;;;;;;;;5053665;28;21876;-83
2023/05/11 14:34:15;;;;;;;5.45;2.10;;;;;;;;;;5051497;28;20036;-83
2023/05/11 14:36:41;;;;;;;8.80;2.40;;;;;;;;;;5053958;28;20024;-84
2023/05/11 14:39:06;;;;;;;7.10;2.33;;;;;;;;;;5049498;28;20154;-84
2023/05/11 14:41:32;;;;;;;4.68;2.40;;;;;;;;;;5068214;28;20499;-81
2023/05/11 14:43:58;;;;;;;5.30;2.22;;;;;;;;;;5070983;28;20024;-83
2023/05/11 14:46:24;;;;;;;4.88;1.98;;;;;;;;;;5036989;28;20028;-85
2023/05/11 14:48:51;;;;;;;6.07;2.30;;;;;;;;;;5056582;28;20481;-85
2023/05/11 14:51:17;;;;;;;6.65;2.00;;;;;;;;;;5047686;28;20477;-82